createdAt,value
2023-01-28T00:00:04.893Z,1.23
2023-01-28T00:02:33.321Z,1.50
2023-01-28T00:05:01.769Z,1.87
2023-01-28T00:07:30.667Z,2.60
2023-01-28T00:10:00.596Z,1.93
2023-01-28T00:12:29.802Z,2.10
2023-01-28T00:14:58.384Z,2.40
2023-01-28T00:17:26.787Z,2.63
2023-01-28T00:19:55.712Z,4.70
2023-01-28T00:22:24.241Z,2.03
2023-01-28T00:24:52.724Z,2.10
2023-01-28T00:27:22.465Z,2.07
2023-01-28T00:29:51.191Z,2.40
2023-01-28T00:32:19.764Z,2.30
2023-01-28T00:34:50.086Z,2.97
2023-01-28T00:37:18.545Z,2.20
2023-01-28T00:39:47.030Z,2.20
2023-01-28T00:42:15.950Z,4.03
2023-01-28T00:44:45.812Z,2.03
2023-01-28T00:47:14.424Z,1.70
2023-01-28T00:49:42.853Z,1.87
2023-01-28T00:52:11.308Z,5.83
2023-01-28T00:54:39.729Z,2.13
2023-01-28T00:57:08.294Z,3.80
2023-01-28T00:59:36.863Z,2.83
2023-01-28T01:02:13.430Z,2.50
2023-01-28T01:04:54.903Z,2.20
2023-01-28T01:07:34.980Z,2.37
2023-01-28T01:10:03.787Z,2.37
2023-01-28T01:12:32.162Z,2.30
2023-01-28T01:15:00.639Z,2.53
2023-01-28T01:17:33.574Z,2.07
2023-01-28T01:20:02.560Z,4.03
2023-01-28T01:22:31.832Z,3.37
2023-01-28T01:25:00.423Z,2.53
2023-01-28T01:27:29.005Z,2.80
2023-01-28T01:29:59.116Z,2.53
2023-01-28T01:32:27.683Z,2.57
2023-01-28T01:34:57.607Z,7.37
2023-01-28T01:37:26.156Z,2.80
2023-01-28T01:39:54.648Z,2.67
2023-01-28T01:42:23.190Z,4.60
2023-01-28T01:44:56.723Z,2.43
2023-01-28T01:47:26.424Z,3.00
2023-01-28T01:49:54.939Z,4.87
2023-01-28T01:52:26.557Z,3.13
2023-01-28T01:54:56.527Z,3.00
2023-01-28T01:57:27.596Z,4.07
2023-01-28T01:59:56.921Z,5.63
2023-01-28T02:02:26.180Z,4.43
2023-01-28T02:04:55.086Z,2.27
2023-01-28T02:07:24.933Z,4.97
2023-01-28T02:09:53.470Z,8.20
2023-01-28T02:12:23.617Z,3.30
2023-01-28T02:14:54.972Z,3.67
2023-01-28T02:17:23.595Z,2.33
2023-01-28T02:19:56.206Z,4.80
2023-01-28T02:22:42.637Z,5.00
2023-01-28T02:25:29.978Z,5.23
2023-01-28T02:28:08.045Z,4.20
2023-01-28T02:30:39.990Z,4.00
2023-01-28T02:33:11.898Z,2.90
2023-01-28T02:35:44.466Z,2.43
2023-01-28T02:38:14.847Z,4.03
2023-01-28T02:40:58.471Z,3.97
2023-01-28T02:43:39.577Z,3.33
2023-01-28T02:46:31.982Z,2.90
2023-01-28T02:49:01.035Z,2.90
2023-01-28T02:51:35.348Z,2.43
2023-01-28T02:54:09.801Z,3.77
2023-01-28T02:56:42.804Z,2.77
2023-01-28T02:59:34.185Z,3.07
2023-01-28T03:02:06.108Z,3.70
2023-01-28T03:04:39.385Z,4.53
2023-01-28T03:07:09.433Z,2.80
2023-01-28T03:09:38.748Z,3.33
2023-01-28T03:12:26.712Z,4.47
2023-01-28T03:15:16.236Z,3.17
2023-01-28T03:18:04.246Z,2.83
2023-01-28T03:20:53.652Z,5.20
2023-01-28T03:23:41.880Z,3.93
2023-01-28T03:26:28.527Z,3.00
2023-01-28T03:29:17.990Z,3.43
2023-01-28T03:32:05.534Z,4.20
2023-01-28T03:34:51.781Z,3.37
2023-01-28T03:37:20.357Z,3.93
2023-01-28T03:39:48.905Z,3.20
2023-01-28T03:42:18.800Z,2.40
2023-01-28T03:44:53.377Z,2.50
2023-01-28T03:47:24.390Z,3.17
2023-01-28T03:49:53.690Z,2.90
2023-01-28T03:52:23.295Z,3.53
2023-01-28T03:54:53.020Z,2.63
2023-01-28T03:57:22.799Z,4.23
2023-01-28T03:59:52.871Z,2.80
2023-01-28T04:02:23.416Z,2.87
2023-01-28T04:04:51.964Z,2.83
2023-01-28T04:07:20.404Z,2.30
2023-01-28T04:09:48.915Z,4.23
2023-01-28T04:12:18.792Z,3.37
2023-01-28T04:14:47.426Z,2.63
2023-01-28T04:17:15.974Z,2.87
2023-01-28T04:19:46.003Z,4.30
2023-01-28T04:22:14.429Z,7.80
2023-01-28T04:24:43.077Z,5.77
2023-01-28T04:27:11.845Z,3.23
2023-01-28T04:29:40.712Z,3.57
2023-01-28T04:32:11.703Z,3.17
2023-01-28T04:34:40.296Z,6.57
2023-01-28T04:37:10.978Z,3.77
2023-01-28T04:39:39.491Z,2.90
2023-01-28T04:42:08.265Z,3.33
2023-01-28T04:44:36.919Z,3.43
2023-01-28T04:47:05.509Z,3.70
2023-01-28T04:49:34.123Z,3.00
2023-01-28T04:52:03.294Z,4.20
2023-01-28T04:54:33.430Z,4.13
2023-01-28T04:57:02.258Z,3.23
2023-01-28T04:59:30.763Z,2.83
2023-01-28T05:01:59.298Z,3.17
2023-01-28T05:04:27.856Z,4.93
2023-01-28T05:06:56.290Z,3.83
2023-01-28T05:09:25.019Z,2.50
2023-01-28T05:11:55.292Z,3.20
2023-01-28T05:14:23.761Z,3.00
2023-01-28T05:16:52.201Z,3.43
2023-01-28T05:19:21.129Z,4.67
2023-01-28T05:21:49.685Z,3.00
2023-01-28T05:24:18.309Z,3.23
2023-01-28T05:26:47.212Z,3.40
2023-01-28T05:29:17.417Z,3.77
2023-01-28T05:31:45.887Z,2.57
2023-01-28T05:34:14.296Z,3.53
2023-01-28T05:36:43.440Z,7.47
2023-01-28T05:39:11.945Z,2.77
2023-01-28T05:41:40.555Z,4.13
2023-01-28T05:44:09.023Z,3.83
2023-01-28T05:46:39.017Z,3.90
2023-01-28T05:49:12.356Z,3.17
2023-01-28T05:51:40.905Z,3.47
2023-01-28T05:54:09.942Z,2.77
2023-01-28T05:56:38.635Z,4.97
2023-01-28T05:59:07.086Z,7.37
2023-01-28T06:01:35.490Z,6.93
2023-01-28T06:04:05.565Z,3.03
2023-01-28T06:06:34.043Z,2.97
2023-01-28T06:09:02.516Z,4.80
2023-01-28T06:11:30.981Z,3.40
2023-01-28T06:13:59.554Z,3.13
2023-01-28T06:16:28.448Z,4.37
2023-01-28T06:18:56.923Z,6.63
2023-01-28T06:21:29.049Z,3.27
2023-01-28T06:23:58.635Z,4.97
2023-01-28T06:26:27.062Z,3.47
2023-01-28T06:28:55.511Z,4.17
2023-01-28T06:31:23.951Z,3.60
2023-01-28T06:33:52.492Z,4.57
2023-01-28T06:36:20.963Z,4.03
2023-01-28T06:38:50.787Z,7.10
2023-01-28T06:41:19.451Z,4.47
2023-01-28T06:43:47.856Z,3.40
2023-01-28T06:46:16.333Z,22.13
2023-01-28T06:48:44.993Z,9.60
2023-01-28T06:51:13.488Z,3.60
2023-01-28T06:53:42.251Z,5.93
2023-01-28T06:56:12.308Z,4.40
2023-01-28T06:58:40.692Z,4.70
2023-01-28T07:01:09.407Z,3.33
2023-01-28T07:03:38.318Z,3.63
2023-01-28T07:06:07.160Z,4.80
2023-01-28T07:08:35.813Z,5.53
2023-01-28T07:11:04.485Z,3.93
2023-01-28T07:13:34.753Z,4.33
2023-01-28T07:16:04.270Z,6.67
2023-01-28T07:18:33.034Z,4.57
2023-01-28T07:21:01.630Z,2.97
2023-01-28T07:23:30.189Z,4.67
2023-01-28T07:26:02.912Z,4.63
2023-01-28T07:28:31.375Z,4.60
2023-01-28T07:31:01.507Z,3.83
2023-01-28T07:33:30.292Z,4.93
2023-01-28T07:35:58.776Z,4.83
2023-01-28T07:38:27.355Z,6.33
2023-01-28T07:40:55.829Z,3.30
2023-01-28T07:43:24.369Z,6.10
2023-01-28T07:45:52.860Z,7.87
2023-01-28T07:48:22.957Z,4.90
2023-01-28T07:50:52.008Z,5.53
2023-01-28T07:53:20.746Z,3.50
2023-01-28T07:55:49.217Z,5.47
2023-01-28T07:58:17.855Z,5.20
2023-01-28T08:00:46.841Z,6.07
2023-01-28T08:03:16.472Z,6.87
2023-01-28T08:05:46.993Z,4.67
2023-01-28T08:08:16.127Z,4.87
2023-01-28T08:10:45.478Z,8.57
2023-01-28T08:13:14.805Z,4.40
2023-01-28T08:15:43.786Z,3.70
2023-01-28T08:18:13.986Z,3.90
2023-01-28T08:20:43.490Z,5.47
2023-01-28T08:23:16.459Z,5.70
2023-01-28T08:25:45.363Z,6.03
2023-01-28T08:28:14.502Z,4.30
2023-01-28T08:30:43.388Z,4.77
2023-01-28T08:33:13.239Z,3.10
2023-01-28T08:35:41.750Z,3.70
2023-01-28T08:38:11.166Z,4.13
2023-01-28T08:40:42.537Z,4.97
2023-01-28T08:43:11.124Z,6.40
2023-01-28T08:45:41.834Z,6.17
2023-01-28T08:48:13.491Z,3.60
2023-01-28T08:50:42.281Z,5.33
2023-01-28T08:53:13.295Z,3.07
2023-01-28T08:55:43.974Z,3.53
2023-01-28T08:58:13.420Z,3.80
2023-01-28T09:00:43.740Z,5.83
2023-01-28T09:03:12.274Z,4.47
2023-01-28T09:05:41.273Z,6.03
2023-01-28T09:08:11.806Z,3.23
2023-01-28T09:10:42.125Z,3.60
2023-01-28T09:13:13.224Z,4.07
2023-01-28T09:15:42.280Z,4.13
2023-01-28T09:18:11.498Z,5.53
2023-01-28T09:20:40.368Z,6.47
2023-01-28T09:23:09.121Z,4.63
2023-01-28T09:25:38.015Z,3.27
2023-01-28T09:28:07.371Z,4.07
2023-01-28T09:30:38.616Z,2.77
2023-01-28T09:33:08.221Z,3.53
2023-01-28T09:35:37.020Z,3.00
2023-01-28T09:38:05.799Z,2.93
2023-01-28T09:40:36.887Z,5.13
2023-01-28T09:43:25.881Z,2.83
2023-01-28T09:45:57.894Z,2.63
2023-01-28T09:48:30.777Z,2.80
2023-01-28T09:50:59.454Z,6.47
2023-01-28T09:53:30.464Z,3.27
2023-01-28T09:56:00.197Z,5.23
2023-01-28T09:58:28.817Z,2.73
2023-01-28T10:01:02.812Z,2.47
2023-01-28T10:03:36.751Z,2.50
2023-01-28T10:06:14.566Z,3.60
2023-01-28T10:08:55.400Z,7.13
2023-01-28T10:11:28.951Z,3.40
2023-01-28T10:14:01.566Z,2.33
2023-01-28T10:16:40.367Z,3.47
2023-01-28T10:19:10.081Z,3.37
2023-01-28T10:21:40.783Z,6.17
2023-01-28T10:24:13.473Z,3.10
2023-01-28T10:26:43.411Z,2.73
2023-01-28T10:29:15.175Z,6.93
2023-01-28T10:31:49.997Z,2.37
2023-01-28T10:34:20.147Z,2.57
2023-01-28T10:36:49.556Z,2.97
2023-01-28T10:39:18.862Z,4.33
2023-01-28T10:41:57.322Z,2.80
2023-01-28T10:44:32.282Z,8.87
2023-01-28T10:47:05.399Z,4.77
2023-01-28T10:49:41.727Z,9.33
2023-01-28T10:52:13.597Z,3.77
2023-01-28T10:54:42.215Z,17.10
2023-01-28T10:57:15.568Z,5.03
2023-01-28T10:59:44.859Z,2.93
2023-01-28T11:02:27.175Z,3.80
2023-01-28T11:05:07.194Z,2.70
2023-01-28T11:07:36.375Z,4.03
2023-01-28T11:10:05.186Z,4.30
2023-01-28T11:12:34.127Z,3.10
2023-01-28T11:15:03.482Z,3.30
2023-01-28T11:17:36.254Z,3.70
2023-01-28T11:20:11.773Z,3.93
2023-01-28T11:22:41.477Z,3.43
2023-01-28T11:25:18.591Z,5.40
2023-01-28T11:27:49.661Z,2.97
2023-01-28T11:30:22.958Z,3.40
2023-01-28T11:33:06.993Z,3.83
2023-01-28T11:35:35.815Z,3.70
2023-01-28T11:38:04.593Z,9.77
2023-01-28T11:40:33.166Z,5.33
2023-01-28T11:43:01.665Z,6.93
2023-01-28T11:45:44.773Z,7.80
2023-01-28T11:48:25.709Z,3.70
2023-01-28T11:50:57.806Z,3.63
2023-01-28T11:53:40.314Z,5.63
2023-01-28T11:56:15.290Z,6.10
2023-01-28T11:58:48.619Z,4.13
2023-01-28T12:01:21.952Z,4.13
2023-01-28T12:04:08.870Z,3.27
2023-01-28T12:06:44.642Z,7.70
2023-01-28T12:09:22.025Z,9.87
2023-01-28T12:12:15.644Z,3.47
2023-01-28T12:14:57.491Z,4.77
2023-01-28T12:17:31.153Z,3.87
2023-01-28T12:20:05.625Z,4.87
2023-01-28T12:22:48.910Z,4.80
2023-01-28T12:25:26.052Z,3.37
2023-01-28T12:28:00.420Z,3.40
2023-01-28T12:30:34.825Z,4.57
2023-01-28T12:33:17.635Z,3.73
2023-01-28T12:35:52.883Z,4.47
2023-01-28T12:38:27.209Z,6.10
2023-01-28T12:41:02.083Z,5.43
2023-01-28T12:43:44.369Z,4.47
2023-01-28T12:46:14.945Z,3.83
2023-01-28T12:48:45.837Z,4.30
2023-01-28T12:51:17.249Z,4.93
2023-01-28T12:53:50.060Z,11.97
2023-01-28T12:56:20.756Z,5.47
2023-01-28T12:58:52.033Z,4.40
2023-01-28T13:01:23.379Z,5.17
2023-01-28T13:03:55.285Z,6.60
2023-01-28T13:06:27.030Z,4.80
2023-01-28T13:08:58.605Z,4.57
2023-01-28T13:11:32.578Z,4.57
2023-01-28T13:14:01.701Z,4.43
2023-01-28T13:16:37.389Z,3.90
2023-01-28T13:19:07.774Z,5.20
2023-01-28T13:21:48.556Z,4.03
2023-01-28T13:24:34.951Z,4.53
2023-01-28T13:27:13.623Z,4.93
2023-01-28T13:29:42.562Z,4.40
2023-01-28T13:32:31.062Z,9.23
2023-01-28T13:35:00.973Z,4.67
2023-01-28T13:37:31.947Z,4.93
2023-01-28T13:40:03.705Z,4.23
2023-01-28T13:42:34.001Z,8.13
2023-01-28T13:45:22.704Z,5.03
2023-01-28T13:47:53.519Z,5.77
2023-01-28T13:50:23.125Z,4.30
2023-01-28T13:52:53.917Z,4.97
2023-01-28T13:55:42.444Z,4.40
2023-01-28T13:58:32.529Z,6.47
2023-01-28T14:01:16.103Z,5.97
2023-01-28T14:03:55.789Z,6.63
2023-01-28T14:06:46.370Z,7.43
2023-01-28T14:09:29.615Z,4.67
2023-01-28T14:12:11.716Z,4.33
2023-01-28T14:14:58.545Z,4.73
2023-01-28T14:17:34.374Z,5.43
2023-01-28T14:20:03.319Z,5.87
2023-01-28T14:22:33.248Z,4.63
2023-01-28T14:25:03.813Z,7.13
2023-01-28T14:27:34.784Z,5.57
2023-01-28T14:30:07.511Z,5.17
2023-01-28T14:32:37.481Z,8.27
2023-01-28T14:35:09.188Z,4.47
2023-01-28T14:37:37.680Z,5.60
2023-01-28T14:40:08.739Z,5.00
2023-01-28T14:42:38.697Z,4.17
2023-01-28T14:45:13.926Z,4.87
2023-01-28T14:47:49.493Z,4.47
2023-01-28T14:50:45.774Z,4.97
2023-01-28T14:53:21.766Z,4.87
2023-01-28T14:55:53.734Z,4.87
2023-01-28T14:58:24.794Z,7.03
2023-01-28T15:00:58.735Z,5.53
2023-01-28T15:03:29.242Z,4.00
2023-01-28T15:06:04.781Z,5.43
2023-01-28T15:08:36.080Z,10.50
2023-01-28T15:11:04.978Z,10.87
2023-01-28T15:13:36.201Z,10.80
2023-01-28T15:16:04.818Z,5.43
2023-01-28T15:18:36.684Z,5.53
2023-01-28T15:21:06.012Z,13.90
2023-01-28T15:23:36.268Z,7.10
2023-01-28T15:26:08.703Z,9.70
2023-01-28T15:28:38.645Z,8.80
2023-01-28T15:31:08.232Z,7.70
2023-01-28T15:33:38.774Z,6.43
2023-01-28T15:36:07.759Z,5.53
2023-01-28T15:38:36.447Z,4.73
2023-01-28T15:41:05.679Z,5.20
2023-01-28T15:43:37.287Z,5.67
2023-01-28T15:46:06.389Z,6.53
2023-01-28T15:48:37.057Z,11.90
2023-01-28T15:51:07.951Z,12.20
2023-01-28T15:53:37.903Z,8.57
2023-01-28T15:56:07.247Z,8.97
2023-01-28T15:58:37.697Z,4.83
2023-01-28T16:01:14.733Z,5.43
2023-01-28T16:03:44.379Z,5.17
2023-01-28T16:06:16.919Z,6.03
2023-01-28T16:08:48.709Z,7.13
2023-01-28T16:11:23.654Z,5.70
2023-01-28T16:13:52.520Z,6.63
2023-01-28T16:16:27.438Z,7.20
2023-01-28T16:18:57.987Z,9.00
2023-01-28T16:21:29.221Z,9.33
2023-01-28T16:24:01.851Z,9.47
2023-01-28T16:26:30.859Z,8.17
2023-01-28T16:28:59.583Z,9.07
2023-01-28T16:31:28.241Z,7.20
2023-01-28T16:33:56.914Z,9.33
2023-01-28T16:36:26.059Z,9.63
2023-01-28T16:38:56.049Z,8.27
2023-01-28T16:41:26.814Z,10.40
2023-01-28T16:43:55.293Z,11.60
2023-01-28T16:46:23.755Z,8.53
2023-01-28T16:48:52.382Z,9.03
2023-01-28T16:51:21.099Z,11.57
2023-01-28T16:53:49.883Z,8.03
2023-01-28T16:56:30.487Z,9.57
2023-01-28T16:59:11.198Z,16.23
2023-01-28T17:01:39.993Z,7.87
2023-01-28T17:04:12.323Z,9.00
2023-01-28T17:06:43.352Z,8.27
2023-01-28T17:09:12.444Z,10.03
2023-01-28T17:11:42.943Z,11.63
2023-01-28T17:14:11.822Z,13.87
2023-01-28T17:16:40.648Z,10.23
2023-01-28T17:19:09.452Z,6.30
2023-01-28T17:21:38.097Z,10.17
2023-01-28T17:24:07.349Z,9.37
2023-01-28T17:26:36.982Z,8.20
2023-01-28T17:29:07.748Z,10.67
2023-01-28T17:31:36.675Z,10.83
2023-01-28T17:34:07.234Z,7.87
2023-01-28T17:36:36.015Z,11.17
2023-01-28T17:39:04.837Z,6.90
2023-01-28T17:41:33.302Z,5.43
2023-01-28T17:44:01.702Z,9.00
2023-01-28T17:46:31.742Z,13.13
2023-01-28T17:49:00.226Z,9.20
2023-01-28T17:51:28.857Z,9.43
2023-01-28T17:53:57.449Z,10.63
2023-01-28T17:56:27.013Z,11.20
2023-01-28T17:58:56.569Z,9.03
2023-01-28T18:01:26.205Z,17.67
2023-01-28T18:03:56.335Z,7.33
2023-01-28T18:06:25.285Z,7.70
2023-01-28T18:08:53.766Z,9.53
2023-01-28T18:11:22.348Z,9.57
2023-01-28T18:13:51.256Z,7.67
2023-01-28T18:16:20.775Z,10.20
2023-01-28T18:18:51.607Z,8.63
2023-01-28T18:21:23.204Z,12.03
2023-01-28T18:23:54.138Z,8.83
2023-01-28T18:26:23.895Z,9.93
2023-01-28T18:28:53.420Z,11.90
2023-01-28T18:31:22.102Z,10.17
2023-01-28T18:33:51.197Z,12.00
2023-01-28T18:36:20.052Z,63.60
2023-01-28T18:38:50.131Z,15.03
2023-01-28T18:41:18.814Z,11.20
2023-01-28T18:43:47.730Z,9.83
2023-01-28T18:46:18.681Z,14.67
2023-01-28T18:48:47.272Z,17.30
2023-01-28T18:51:28.998Z,13.43
2023-01-28T18:54:01.426Z,16.10
2023-01-28T18:56:30.577Z,12.47
2023-01-28T18:58:59.106Z,12.77
2023-01-28T19:01:27.752Z,18.90
2023-01-28T19:03:56.868Z,15.13
2023-01-28T19:06:25.711Z,15.70
2023-01-28T19:08:55.830Z,17.70
2023-01-28T19:11:27.812Z,17.30
2023-01-28T19:13:56.958Z,15.67
2023-01-28T19:16:26.117Z,16.20
2023-01-28T19:18:55.432Z,24.00
2023-01-28T19:21:24.554Z,18.63
2023-01-28T19:23:57.213Z,16.17
2023-01-28T19:26:28.120Z,22.00
2023-01-28T19:28:57.118Z,16.20
2023-01-28T19:31:26.033Z,16.70
2023-01-28T19:34:01.052Z,14.80
2023-01-28T19:36:31.069Z,21.07
2023-01-28T19:39:00.114Z,16.60
2023-01-28T19:41:30.664Z,15.83
2023-01-28T19:44:00.331Z,19.53
2023-01-28T19:46:29.340Z,18.33
2023-01-28T19:48:57.999Z,25.03
2023-01-28T19:51:26.738Z,24.17
2023-01-28T19:53:55.823Z,18.37
2023-01-28T19:56:25.698Z,12.97
2023-01-28T19:58:56.384Z,20.00
2023-01-28T20:01:29.886Z,26.87
2023-01-28T20:03:59.715Z,18.73
2023-01-28T20:06:29.116Z,16.67
2023-01-28T20:08:58.721Z,19.43
2023-01-28T20:11:27.645Z,14.03
2023-01-28T20:13:57.958Z,22.40
2023-01-28T20:16:27.531Z,20.73
2023-01-28T20:18:57.064Z,19.73
2023-01-28T20:21:25.871Z,19.97
2023-01-28T20:23:55.799Z,23.73
2023-01-28T20:26:25.565Z,22.70
2023-01-28T20:28:55.563Z,19.40
2023-01-28T20:31:25.665Z,21.70
2023-01-28T20:33:54.405Z,17.83
2023-01-28T20:36:22.877Z,18.83
2023-01-28T20:38:51.673Z,27.30
2023-01-28T20:41:21.475Z,21.00
2023-01-28T20:43:50.751Z,25.47
2023-01-28T20:46:20.563Z,24.87
2023-01-28T20:48:51.445Z,18.03
2023-01-28T20:51:20.668Z,22.77
2023-01-28T20:53:49.298Z,19.27
2023-01-28T20:56:19.952Z,28.93
2023-01-28T20:58:50.173Z,22.43
2023-01-28T21:01:19.180Z,20.10
2023-01-28T21:03:48.181Z,21.20
2023-01-28T21:06:19.251Z,22.63
2023-01-28T21:08:47.955Z,24.17
2023-01-28T21:11:16.766Z,19.10
2023-01-28T21:13:45.227Z,25.73
2023-01-28T21:16:13.834Z,23.57
2023-01-28T21:18:42.401Z,22.77
2023-01-28T21:21:14.765Z,18.57
2023-01-28T21:23:44.685Z,17.07
2023-01-28T21:26:15.546Z,24.73
2023-01-28T21:28:44.189Z,22.13
2023-01-28T21:31:13.614Z,18.20
2023-01-28T21:33:42.162Z,24.53
2023-01-28T21:36:11.602Z,17.33
2023-01-28T21:38:40.397Z,21.73
2023-01-28T21:41:10.916Z,16.37
2023-01-28T21:43:39.815Z,17.97
2023-01-28T21:46:08.688Z,25.30
2023-01-28T21:48:37.381Z,24.37
2023-01-28T21:51:24.585Z,27.37
2023-01-28T21:53:52.988Z,18.17
2023-01-28T21:56:23.635Z,22.37
2023-01-28T21:59:09.988Z,23.67
2023-01-28T22:01:38.424Z,23.83
2023-01-28T22:04:07.320Z,19.90
2023-01-28T22:06:35.967Z,20.67
2023-01-28T22:09:04.981Z,21.03
2023-01-28T22:11:35.036Z,20.83
2023-01-28T22:14:03.550Z,22.40
2023-01-28T22:16:32.115Z,20.00
2023-01-28T22:19:00.784Z,24.80
2023-01-28T22:21:29.220Z,25.03
2023-01-28T22:23:57.886Z,15.23
2023-01-28T22:26:26.434Z,22.63
2023-01-28T22:28:56.334Z,20.17
2023-01-28T22:31:25.035Z,21.93
2023-01-28T22:33:53.501Z,23.07
2023-01-28T22:36:21.883Z,18.97
2023-01-28T22:38:50.429Z,24.20
2023-01-28T22:41:22.749Z,24.17
2023-01-28T22:43:51.985Z,21.00
2023-01-28T22:46:22.609Z,21.13
2023-01-28T22:48:51.373Z,18.10
2023-01-28T22:51:21.039Z,24.40
2023-01-28T22:53:49.819Z,26.07
2023-01-28T22:56:19.080Z,17.67
2023-01-28T22:58:47.696Z,27.13
2023-01-28T23:01:17.882Z,24.30
2023-01-28T23:03:48.516Z,25.37
2023-01-28T23:06:17.607Z,26.27
2023-01-28T23:08:46.271Z,28.20
2023-01-28T23:11:16.253Z,36.80
2023-01-28T23:14:02.560Z,29.13
2023-01-28T23:16:48.938Z,22.40
2023-01-28T23:19:36.403Z,37.27
2023-01-28T23:22:22.443Z,32.13
2023-01-28T23:24:50.886Z,35.77
2023-01-28T23:27:19.482Z,16.83
2023-01-28T23:29:48.088Z,20.33
2023-01-28T23:32:16.661Z,24.53
2023-01-28T23:34:46.547Z,23.67
2023-01-28T23:37:15.366Z,23.23
2023-01-28T23:39:44.049Z,17.67
2023-01-28T23:42:13.508Z,23.77
2023-01-28T23:44:42.027Z,22.93
2023-01-28T23:47:10.858Z,26.87
2023-01-28T23:49:39.719Z,20.77
2023-01-28T23:52:10.309Z,26.10
2023-01-28T23:54:38.808Z,23.97
2023-01-28T23:57:07.624Z,20.03
2023-01-28T23:59:36.553Z,27.37
